Latest Weather Observations for Evans Head

IDN60801

Issued at 3:04 pm EDT Sunday 1 February 2015 (issued every 30 minutes, with the page automatically refreshed every 10 minutes)

About weather observations | Map of weather stations | Latest weather observations for NSW | Other Formats
Station Details ID: 058212 Name: EVANS HEAD RAAF BOMBING RANGE AWS Lat: -29.18 Lon: 153.40 Height: 62.5 m
Data from the previous 72 hours. | See also: Recent months at Evans Head
Date/Time
EDT
Temp
°C
App
Temp
°C
Dew
Point
Rel
Hum
%
Delta-T
°C
Wind Press
QNH
hPa
Press
MSL
hPa
Rain
since 9 am
mm
Dir
 
Spd
km/h
Gust
km/h
Spd
kts
Gust
kts
01/03:00pm 28.7 29.6 22.0 67 4.5 S 20 30 11 16 1005.7 1005.4 0.0
01/02:30pm 28.6 29.6 22.8 71 4.0 S 22 30 12 16 1006.0 1005.7 0.0
01/02:00pm 29.0 30.3 22.7 69 4.3 S 20 28 11 15 1006.3 1006.0 0.0
01/01:30pm 28.5 29.4 22.7 71 4.0 S 22 32 12 17 1006.6 1006.3 0.0
01/01:00pm 28.1 28.6 21.9 69 4.2 S 22 30 12 16 1006.9 1006.6 0.0
01/12:30pm 28.1 28.7 21.4 67 4.5 S 20 28 11 15 1007.2 1006.9 0.0
01/12:00pm 28.4 29.1 22.2 69 4.2 S 22 30 12 16 1007.5 1007.2 0.0
01/11:30am 28.4 29.7 22.6 71 3.9 S 20 30 11 16 1007.5 1007.2 0.0
01/11:00am 28.1 30.3 21.9 69 4.2 SSW 13 20 7 11 1007.7 1007.4 0.0
01/10:30am 26.4 28.5 20.9 72 3.6 WSW 11 19 6 10 1007.8 1007.5 0.0
01/10:00am 26.8 29.2 21.5 72 3.5 SW 11 17 6 9 1007.9 1007.6 0.0
01/09:30am 26.1 29.1 22.6 81 2.4 WNW 11 17 6 9 1007.7 1007.4 0.0
01/09:00am 24.8 27.7 22.5 87 1.6 W 11 17 6 9 1007.6 1007.3 0.0
01/08:30am 24.1 27.4 22.5 91 1.1 W 9 15 5 8 1007.4 1007.1 0.0
01/08:00am 22.8 26.0 22.3 97 0.3 W 9 17 5 9 1007.2 1006.9 0.0
01/07:30am 21.4 23.6 21.1 98 0.2 WNW 11 15 6 8 1006.8 1006.5 0.0
01/07:00am 20.2 21.8 19.9 98 0.2 WNW 11 13 6 7 1006.5 1006.2 0.0
01/06:30am 20.0 21.5 19.7 98 0.2 W 11 17 6 9 1006.3 1006.0 0.0
01/06:00am 20.0 21.1 19.7 98 0.2 W 13 22 7 12 1005.9 1005.6 0.0
01/05:30am 20.3 21.9 20.0 98 0.2 WSW 11 19 6 10 1005.5 1005.2 0.0
01/05:00am 20.4 21.3 20.1 98 0.2 WSW 15 19 8 10 1005.4 1005.1 0.0
01/04:30am 20.8 22.3 20.5 98 0.2 WSW 13 19 7 10 1005.3 1005.0 0.0
01/04:00am 21.5 23.7 21.2 98 0.2 SW 11 15 6 8 1005.6 1005.3 0.0
01/03:30am 21.8 22.5 21.5 98 0.2 S 20 28 11 15 1005.3 1005.0 0.0
01/03:00am 20.8 21.0 20.5 98 0.2 WSW 20 26 11 14 1005.5 1005.2 0.0
01/02:30am 20.8 21.6 20.6 99 0.1 WSW 17 24 9 13 1005.6 1005.3 0.0
01/02:00am 20.7 21.4 20.5 99 0.1 WSW 17 24 9 13 1005.9 1005.6 0.0
01/01:30am 20.9 22.4 20.6 98 0.2 W 13 17 7 9 1005.7 1005.4 0.0
01/01:00am 21.5 24.0 21.0 97 0.3 W 9 13 5 7 1005.9 1005.6 0.0
01/12:30am 22.8 25.6 21.6 93 0.8 ESE 9 13 5 7 1006.5 1006.2 0.0
01/12:00am 22.6 25.7 22.1 97 0.3 ESE 9 17 5 9 1006.8 1006.5 0.0
 
Date/Time
EDT
Temp
°C
App
Temp
°C
Dew
Point
Rel
Hum
%
Delta-T
°C
Wind Press
QNH
hPa
Press
MSL
hPa
Rain
since 9 am
mm
Dir
 
Spd
km/h
Gust
km/h
Spd
kts
Gust
kts
31/11:30pm 22.4 25.0 21.2 93 0.8 ENE 9 15 5 8 1006.8 1006.5 0.0
31/11:00pm 22.4 25.5 22.1 98 0.2 NE 9 13 5 7 1006.9 1006.6 0.0
31/10:30pm 22.0 24.9 21.7 98 0.2 SSW 9 11 5 6 1006.8 1006.5 0.0
31/10:00pm 21.6 23.1 21.3 98 0.2 SSW 15 19 8 10 1006.6 1006.3 0.0
31/09:30pm 21.4 23.5 20.9 97 0.3 SSW 11 13 6 7 1006.3 1006.0 0.0
31/09:00pm 22.1 25.1 21.3 95 0.5 SSW 7 9 4 5 1006.0 1005.7 0.0
31/08:30pm 22.3 24.1 20.4 89 1.2 N 11 15 6 8 1005.5 1005.2 0.0
31/08:00pm 22.6 23.4 19.8 84 1.8 N 15 20 8 11 1005.1 1004.8 0.0
31/07:30pm 23.3 23.6 18.8 76 2.9 N 15 24 8 13 1004.7 1004.4 0.0
31/07:00pm 24.8 24.1 18.3 67 4.1 NNE 19 32 10 17 1004.3 1004.0 0.0
31/06:30pm 26.5 28.7 20.3 68 4.1 ESE 9 15 5 8 1003.4 1003.1 0.0
31/05:30pm 26.9 26.4 17.7 57 5.8 N 17 26 9 14 1002.2 1001.9 0.0
31/05:00pm 29.1 28.9 19.7 57 6.2 N 20 44 11 24 1002.7 1002.4 0.0
31/04:30pm 31.2 33.0 21.1 55 6.8 N 13 24 7 13 1002.4 1002.1 0.0
31/04:00pm 29.8 31.1 22.3 64 5.1 N 19 32 10 17 1002.5 1002.2 0.0
31/03:30pm 27.0 27.6 21.3 71 3.8 N 20 33 11 18 1003.4 1003.1 0.0
31/03:00pm 29.4 29.9 22.6 67 4.6 NNE 24 37 13 20 1003.6 1003.3 0.0
31/02:30pm 29.1 29.4 20.5 59 5.7 NNE 19 32 10 17 1004.0 1003.7 0.0
31/02:00pm 31.3 32.7 22.6 60 6.0 NNE 19 33 10 18 1004.4 1004.1 0.0
31/01:30pm 30.0 31.0 21.7 61 5.6 NE 19 33 10 18 1004.8 1004.5 0.0
31/01:00pm 30.1 30.8 20.4 56 6.4 NNE 17 28 9 15 1005.3 1005.0 0.0
31/12:30pm 31.1 32.5 21.0 55 6.8 N 15 30 8 16 1005.5 1005.2 0.0
31/12:00pm 29.7 31.9 21.9 63 5.3 E 13 22 7 12 1006.1 1005.8 0.0
31/11:30am 28.7 30.4 21.0 63 5.1 E 13 20 7 11 1006.5 1006.2 0.0
31/11:00am 28.5 31.5 20.8 63 5.1 NNE 6 17 3 9 1006.9 1006.6 0.0
31/10:30am 28.7 29.6 18.5 54 6.6 WNW 11 19 6 10 1007.1 1006.8 0.0
31/10:00am 27.3 29.4 18.9 60 5.4 W 6 15 3 8 1007.1 1006.8 0.0
31/09:30am 26.2 28.1 18.6 63 4.9 W 6 11 3 6 1007.3 1007.0 0.0
31/09:00am 25.8 28.0 19.2 67 4.3 WNW 6 11 3 6 1007.4 1007.1 0.0
31/08:30am 24.3 28.1 21.0 82 2.2 W 2 7 1 4 1007.5 1007.2 0.0
31/08:00am 23.0 27.4 21.3 90 1.1 CALM 0 0 0 0 1007.5 1007.2 0.0
31/07:30am 21.7 24.7 21.2 97 0.3 SW 7 11 4 6 1007.4 1007.1 0.0
31/07:00am 20.9 23.6 20.6 98 0.2 W 7 11 4 6 1007.1 1006.8 0.0
31/06:30am 19.8 22.0 19.5 98 0.2 S 7 9 4 5 1006.7 1006.4 0.0
31/06:00am 19.8 22.0 19.5 98 0.2 WSW 7 11 4 6 1006.2 1005.9 0.0
31/05:30am 18.9 20.6 18.4 97 0.3 NNW 7 9 4 5 1005.9 1005.6 0.0
31/05:00am 19.4 20.9 18.9 97 0.3 SSW 9 11 5 6 1005.8 1005.5 0.0
31/04:30am 19.8 20.7 19.3 97 0.3 SSW 13 17 7 9 1005.7 1005.4 0.0
31/04:00am 20.1 21.9 18.8 92 0.8 S 7 11 4 6 1005.3 1005.0 0.0
31/03:30am 21.0 23.5 19.1 89 1.2 NNE 4 7 2 4 1005.1 1004.8 0.0
31/03:00am 21.0 24.5 19.6 92 0.9 CALM 0 6 0 3 1005.0 1004.7 0.0
31/02:30am 20.6 22.9 19.9 96 0.4 NW 7 11 4 6 1005.1 1004.8 0.0
31/02:00am 20.5 22.5 20.0 97 0.3 NW 9 19 5 10 1005.3 1005.0 0.0
31/01:30am 20.5 22.1 20.0 97 0.3 NNW 11 19 6 10 1005.4 1005.1 0.0
31/01:00am 20.7 22.4 20.2 97 0.3 NNW 11 17 6 9 1005.6 1005.3 0.0
31/12:30am 20.6 21.5 20.1 97 0.3 NNW 15 22 8 12 1005.8 1005.5 0.0
31/12:00am 20.8 21.4 20.3 97 0.3 NNW 17 28 9 15 1005.9 1005.6 0.0
 
Date/Time
EDT
Temp
°C
App
Temp
°C
Dew
Point
Rel
Hum
%
Delta-T
°C
Wind Press
QNH
hPa
Press
MSL
hPa
Rain
since 9 am
mm
Dir
 
Spd
km/h
Gust
km/h
Spd
kts
Gust
kts
30/11:30pm 20.9 21.9 20.2 96 0.5 NNW 15 22 8 12 1006.1 1005.8 0.0
30/11:00pm 21.2 22.4 19.8 92 0.9 N 13 20 7 11 1006.2 1005.9 0.0
30/10:30pm 21.6 21.7 19.9 90 1.1 N 19 26 10 14 1006.2 1005.9 0.0
30/10:00pm 21.9 21.8 20.0 89 1.2 N 20 30 11 16 1006.1 1005.8 0.0
30/09:30pm 22.2 21.6 19.7 86 1.6 N 22 32 12 17 1005.9 1005.6 0.0
30/09:00pm 22.5 22.4 19.9 85 1.7 N 20 33 11 18 1005.8 1005.5 0.0
30/08:30pm 23.0 22.3 19.6 81 2.2 N 22 30 12 16 1005.6 1005.3 0.0
30/08:00pm 23.4 22.3 19.5 79 2.5 N 24 37 13 20 1005.5 1005.2 0.0
30/07:30pm 23.7 23.2 19.2 76 2.9 N 20 32 11 17 1005.3 1005.0 0.0
30/07:00pm 24.6 24.5 19.9 75 3.1 N 20 30 11 16 1005.1 1004.8 0.0
30/06:30pm 25.4 24.9 20.0 72 3.5 NNE 22 35 12 19 1004.8 1004.5 0.0
30/06:00pm 24.9 25.0 19.9 74 3.3 N 19 32 10 17 1004.6 1004.3 0.0
30/05:30pm 26.6 25.8 20.0 67 4.3 NNE 24 41 13 22 1004.5 1004.2 0.0
30/05:00pm 25.6 25.3 19.5 69 4.0 NNE 20 33 11 18 1004.8 1004.5 0.0
30/04:31pm 26.5 24.4 18.9 63 4.9 N 28 46 15 25 1005.1 1004.8 0.0
30/04:30pm 26.3 23.6 18.4 61 5.0 N 30 46 16 25 1005.1 1004.8 0.0
30/04:24pm 27.0 24.8 18.6 60 5.4 NNE 28 46 15 25 1005.1 1004.8 0.0
30/04:00pm 27.5 26.3 18.5 58 5.8 NNE 22 37 12 20 1005.5 1005.2 0.0
30/03:30pm 28.1 27.8 19.6 60 5.5 NNE 20 37 11 20 1005.8 1005.5 0.0
30/03:00pm 26.3 25.3 17.9 60 5.3 NNE 20 33 11 18 1006.2 1005.9 0.0
30/02:30pm 27.5 26.6 18.2 57 5.9 NNE 20 35 11 19 1006.7 1006.4 0.0
30/02:00pm 26.4 25.5 17.7 58 5.5 NE 19 30 10 16 1007.1 1006.8 0.0
30/01:30pm 27.5 27.4 18.8 59 5.6 NE 17 30 9 16 1007.5 1007.2 0.0
30/01:00pm 27.4 27.8 18.1 57 5.9 NE 13 24 7 13 1007.9 1007.6 0.0
30/12:30pm 27.0 27.3 18.0 58 5.7 NE 13 24 7 13 1008.4 1008.1 0.0
30/12:00pm 24.9 24.5 16.1 58 5.4 E 13 20 7 11 1008.7 1008.4 0.0
30/11:30am 26.1 26.1 17.2 58 5.6 E 13 19 7 10 1009.1 1008.8 0.0
30/11:00am 25.1 24.3 15.1 53 6.0 ESE 13 19 7 10 1009.2 1008.9 0.0
30/10:30am 25.2 25.2 15.2 54 6.0 ESE 9 15 5 8 1009.4 1009.1 0.0
30/10:00am 24.4 25.0 14.2 53 6.0 SE 4 11 2 6 1009.4 1009.1 0.0
30/09:30am 24.2 24.5 14.6 55 5.7 SE 6 13 3 7 1009.7 1009.4 0.0
30/09:00am 22.8 22.9 13.8 57 5.3 SSW 6 9 3 5 1009.8 1009.5 0.8
30/08:30am 21.7 21.7 13.6 60 4.7 SSW 6 11 3 6 1009.9 1009.6 0.8
30/08:00am 20.9 20.5 14.1 65 4.0 SSW 9 13 5 7 1009.8 1009.5 0.8
30/07:30am 19.9 19.6 14.3 70 3.3 SW 9 11 5 6 1009.6 1009.3 0.8
30/07:00am 18.5 17.9 15.6 83 1.7 SW 13 15 7 8 1009.4 1009.1 0.8
30/06:30am 17.6 17.1 17.0 96 0.4 SSW 15 19 8 10 1009.2 1008.9 0.8
30/06:00am 18.0 17.4 15.6 86 1.4 SSW 13 17 7 9 1008.9 1008.6 0.8
30/05:30am 18.5 18.0 15.9 85 1.5 SSW 13 17 7 9 1008.8 1008.5 0.8
30/05:00am 18.5 18.8 16.1 86 1.4 SW 9 11 5 6 1008.9 1008.6 0.8
30/04:30am 18.9 19.1 16.7 87 1.3 SSW 11 15 6 8 1009.1 1008.8 0.8
30/04:00am 19.2 19.1 17.0 87 1.3 SSW 13 17 7 9 1009.1 1008.8 0.8
30/03:30am 19.5 19.8 17.1 86 1.5 SSW 11 15 6 8 1009.3 1009.0 0.8
30/03:00am 19.7 19.8 17.5 87 1.4 SSW 13 17 7 9 1009.5 1009.2 0.8
30/02:30am 20.0 20.9 17.6 86 1.5 SW 9 15 5 8 1009.8 1009.5 0.8
30/02:00am 20.6 20.6 17.2 81 2.1 S 13 19 7 10 1010.0 1009.7 0.8
30/01:30am 20.3 19.8 16.9 81 2.1 SE 15 20 8 11 1010.1 1009.8 0.8
30/01:00am 20.6 19.7 16.8 79 2.3 SE 17 22 9 12 1010.4 1010.1 0.8
30/12:30am 20.6 20.0 17.6 83 1.8 ESE 17 24 9 13 1010.5 1010.2 0.8
30/12:00am 19.9 20.0 18.4 91 0.9 E 15 20 8 11 1010.7 1010.4 0.8
 
Date/Time
EDT
Temp
°C
App
Temp
°C
Dew
Point
Rel
Hum
%
Delta-T
°C
Wind Press
QNH
hPa
Press
MSL
hPa
Rain
since 9 am
mm
Dir
 
Spd
km/h
Gust
km/h
Spd
kts
Gust
kts
29/11:30pm 19.4 19.4 18.1 92 0.8 ESE 15 20 8 11 1011.0 1010.7 0.8
29/11:00pm 19.6 19.3 16.4 82 1.9 ESE 13 19 7 10 1011.1 1010.8 0.6
29/10:30pm 21.8 20.5 15.9 69 3.6 ESE 17 28 9 15 1010.8 1010.5 0.0
29/10:00pm 22.5 20.4 14.6 61 4.7 ESE 19 28 10 15 1010.6 1010.3 0.0
29/09:30pm 22.8 20.6 14.9 61 4.7 ESE 20 30 11 16 1010.4 1010.1 0.0
29/09:00pm 22.7 20.1 14.8 61 4.7 ESE 22 32 12 17 1010.1 1009.8 0.0
29/08:30pm 22.7 20.5 15.0 61 4.6 SE 20 30 11 16 1010.1 1009.8 0.0
29/08:00pm 22.7 20.3 15.5 64 4.3 SE 22 33 12 18 1009.6 1009.3 0.0
29/07:30pm 22.7 21.0 16.3 67 3.9 SE 20 32 11 17 1009.2 1008.9 0.0
29/07:00pm 22.8 20.6 16.8 69 3.7 SE 24 32 13 17 1008.7 1008.4 0.0
29/06:30pm 23.5 21.7 17.0 67 4.0 SE 22 32 12 17 1008.4 1008.1 0.0
29/06:00pm 23.2 21.1 16.3 65 4.2 SE 22 33 12 18 1008.1 1007.8 0.0
29/05:30pm 24.5 22.7 17.0 63 4.6 SE 22 33 12 18 1007.8 1007.5 0.0
29/05:00pm 24.3 23.1 17.5 66 4.3 SE 20 30 11 16 1007.8 1007.5 0.0
29/04:30pm 25.9 25.0 18.3 63 4.8 SE 20 30 11 16 1007.8 1007.5 0.0
29/04:00pm 25.7 24.0 17.1 59 5.4 SE 22 32 12 17 1008.0 1007.7 0.0
29/03:30pm 26.1 23.8 17.7 60 5.3 SE 26 37 14 20 1008.0 1007.7 0.0

Other Formats:

Comma delimited format used in spreadsheet applications
http://www.bom.gov.au/fwo/IDN60801/IDN60801.94598.axf

JavaScript Object Notation format (JSON) in row-major order
http://www.bom.gov.au/fwo/IDN60801/IDN60801.94598.json